Time;durP1;ratioP1;P1;durP2;ratioP2;P2;SDS_P1;SDS_P2;PMS_P1;PMS_P2;Temp;Humidity;BMP_temperature;BMP_pressure;BME280_temperature;BME280_humidity;BME280_pressure;Samples;Min_cycle;Max_cycle;Signal;HPM_P1;HPM_P2
2022/10/25 00:01:17;;;;;;;3.15;1.33;;;11.90;99.90;;;;;;4998175;28;20032;-78
2022/10/25 00:03:53;;;;;;;3.03;1.23;;;11.80;99.90;;;;;;4996092;28;20018;-78
2022/10/25 00:06:22;;;;;;;5.05;1.17;;;11.80;99.90;;;;;;5002280;28;20024;-77
2022/10/25 00:08:57;;;;;;;1.88;0.93;;;11.80;99.90;;;;;;5014319;28;20125;-79
2022/10/25 00:11:28;;;;;;;5.63;1.40;;;11.80;99.90;;;;;;4999462;28;20439;-76
2022/10/25 00:13:55;;;;;;;3.00;1.10;;;11.80;99.90;;;;;;4998603;28;20550;-78
2022/10/25 00:16:30;;;;;;;4.32;1.30;;;11.80;99.90;;;;;;4997037;28;20079;-78
2022/10/25 00:18:56;;;;;;;3.85;1.20;;;11.80;99.90;;;;;;4994561;28;20035;-79
2022/10/25 00:21:27;;;;;;;4.40;1.02;;;11.80;99.90;;;;;;4995483;28;20082;-77
2022/10/25 00:23:53;;;;;;;3.10;1.13;;;11.80;99.90;;;;;;5007505;28;20025;-78
2022/10/25 00:26:20;;;;;;;2.17;1.00;;;11.70;99.90;;;;;;5016328;28;20052;-79
2022/10/25 00:28:55;;;;;;;6.45;1.23;;;11.70;99.90;;;;;;4997663;28;20113;-76
2022/10/25 00:31:24;;;;;;;3.60;1.70;;;11.70;99.90;;;;;;4994807;28;20578;-77
2022/10/25 00:33:52;;;;;;;5.57;1.33;;;11.70;99.90;;;;;;4989840;28;20488;-77
2022/10/25 00:36:25;;;;;;;2.03;1.25;;;11.70;99.90;;;;;;4997789;28;20018;-77
2022/10/25 00:38:52;;;;;;;7.27;1.63;;;11.70;99.90;;;;;;4995080;28;20037;-78
2022/10/25 00:41:29;;;;;;;3.85;1.48;;;11.70;99.90;;;;;;4995015;28;20358;-77
2022/10/25 00:44:32;;;;;;;6.38;1.20;;;11.70;99.90;;;;;;5000491;28;20430;-80
2022/10/25 00:46:58;;;;;;;1.70;0.90;;;11.70;99.90;;;;;;5006189;28;20388;-78
2022/10/25 00:49:23;;;;;;;5.70;1.02;;;11.80;99.90;;;;;;5001577;28;20030;-78
2022/10/25 00:51:56;;;;;;;1.58;1.00;;;11.80;99.90;;;;;;4999787;28;20053;-78
2022/10/25 00:54:32;;;;;;;5.07;1.92;;;11.80;99.90;;;;;;5019627;28;20036;-79
2022/10/25 00:57:01;;;;;;;11.93;1.50;;;11.80;99.90;;;;;;5007226;28;20026;-78
2022/10/25 00:59:30;;;;;;;4.05;1.63;;;11.80;99.90;;;;;;5003375;28;20141;-78
2022/10/25 01:01:56;;;;;;;4.63;2.05;;;11.80;99.90;;;;;;4997806;28;20034;-79
2022/10/25 01:04:26;;;;;;;3.47;2.20;;;11.80;99.90;;;;;;4994900;28;20026;-78
2022/10/25 01:06:52;;;;;;;3.00;1.90;;;11.80;99.90;;;;;;5000076;28;20034;-77
2022/10/25 01:09:29;;;;;;;4.22;2.20;;;11.70;99.90;;;;;;4993650;28;20030;-78
2022/10/25 01:11:58;;;;;;;7.72;2.40;;;11.70;99.90;;;;;;5000285;28;20041;-79
2022/10/25 01:14:26;;;;;;;5.10;2.38;;;11.70;99.90;;;;;;4997986;28;20620;-78
2022/10/25 01:17:29;;;;;;;5.82;2.00;;;11.70;99.90;;;;;;5024072;28;20034;-79
2022/10/25 01:20:13;;;;;;;6.38;2.42;;;11.60;99.90;;;;;;5005309;28;20030;-79
2022/10/25 01:23:03;;;;;;;3.63;1.40;;;11.60;99.90;;;;;;5010470;28;20022;-79
2022/10/25 01:25:51;;;;;;;4.43;1.42;;;11.60;99.90;;;;;;5006151;28;20022;-78
2022/10/25 01:28:57;;;;;;;3.42;1.77;;;11.50;99.90;;;;;;5006217;28;20035;-79
2022/10/25 01:31:54;;;;;;;4.40;1.25;;;11.50;99.90;;;;;;4997779;28;20057;-77
2022/10/25 01:34:29;;;;;;;2.92;1.40;;;11.40;99.90;;;;;;4993993;28;20026;-77
2022/10/25 01:37:12;;;;;;;5.85;1.23;;;11.40;99.90;;;;;;5001111;28;20108;-77
2022/10/25 01:39:52;;;;;;;2.08;1.20;;;11.40;99.90;;;;;;4998160;28;20506;-77
2022/10/25 01:42:55;;;;;;;2.60;0.88;;;11.30;99.90;;;;;;5003912;28;20026;-77
2022/10/25 01:45:38;;;;;;;5.22;1.50;;;11.30;99.90;;;;;;5002404;28;20033;-78
2022/10/25 01:48:30;;;;;;;3.70;1.40;;;11.20;99.90;;;;;;5006076;28;20026;-79
2022/10/25 01:51:11;;;;;;;6.63;1.50;;;11.30;99.90;;;;;;5025028;28;20057;-78
2022/10/25 01:54:15;;;;;;;4.38;1.80;;;11.20;99.90;;;;;;5001787;28;20027;-78
2022/10/25 01:56:57;;;;;;;6.50;1.45;;;11.20;99.90;;;;;;5007134;28;20035;-78
2022/10/25 01:59:40;;;;;;;2.47;1.27;;;11.20;99.90;;;;;;5025319;28;20041;-78
2022/10/25 02:02:19;;;;;;;3.75;1.05;;;11.10;99.90;;;;;;5010708;28;20026;-79
2022/10/25 02:05:18;;;;;;;2.97;1.33;;;11.10;99.90;;;;;;5004961;28;20233;-78
2022/10/25 02:07:55;;;;;;;3.13;1.05;;;11.10;99.90;;;;;;4995742;28;20643;-80
2022/10/25 02:10:39;;;;;;;3.92;1.60;;;11.10;99.90;;;;;;4992785;28;20351;-78
2022/10/25 02:13:36;;;;;;;2.83;1.60;;;11.10;99.90;;;;;;4999862;28;20070;-79
2022/10/25 02:16:09;;;;;;;4.55;1.63;;;11.20;99.90;;;;;;4997014;28;20043;-78
2022/10/25 02:18:40;;;;;;;3.72;2.17;;;11.20;99.90;;;;;;5004062;28;20030;-78
2022/10/25 02:21:08;;;;;;;2.20;1.67;;;11.10;99.90;;;;;;4997713;28;20018;-76
2022/10/25 02:23:35;;;;;;;3.13;1.60;;;11.10;99.90;;;;;;4997415;28;20027;-78
2022/10/25 02:26:05;;;;;;;5.57;1.85;;;11.10;99.90;;;;;;4995347;28;20398;-77
2022/10/25 02:28:34;;;;;;;3.53;1.65;;;11.10;99.90;;;;;;4999227;28;20033;-77
2022/10/25 02:31:00;;;;;;;3.92;1.75;;;11.10;99.90;;;;;;5017631;28;20391;-78
2022/10/25 02:33:26;;;;;;;5.03;2.60;;;11.10;99.90;;;;;;4992460;28;24456;-78
2022/10/25 02:36:24;;;;;;;8.50;2.42;;;11.10;99.90;;;;;;4995782;28;20034;-77
2022/10/25 02:38:52;;;;;;;4.18;1.75;;;11.00;99.90;;;;;;4997695;28;20061;-77
2022/10/25 02:41:19;;;;;;;4.28;1.90;;;11.00;99.90;;;;;;5005613;28;20398;-78
2022/10/25 02:47:07;;;;;;;5.03;1.95;;;11.00;99.90;;;;;;5003461;28;20028;-77
2022/10/25 02:49:35;;;;;;;5.00;1.75;;;11.00;99.90;;;;;;5008341;28;20058;-78
2022/10/25 02:52:01;;;;;;;4.95;2.03;;;11.00;99.90;;;;;;5003333;28;20085;-78
2022/10/25 02:54:26;;;;;;;4.15;2.03;;;10.90;99.90;;;;;;5007292;28;20467;-79
2022/10/25 02:56:55;;;;;;;4.95;2.38;;;10.90;99.90;;;;;;5001377;28;20041;-79
2022/10/25 02:59:21;;;;;;;4.40;2.05;;;10.90;99.90;;;;;;5006146;28;20040;-79
2022/10/25 03:01:49;;;;;;;5.50;2.47;;;10.90;99.90;;;;;;5000590;28;20043;-78
2022/10/25 03:04:18;;;;;;;10.07;2.75;;;10.80;99.90;;;;;;5004305;28;20038;-79
2022/10/25 03:06:49;;;;;;;4.07;1.60;;;10.90;99.90;;;;;;4997019;28;20038;-77
2022/10/25 03:09:15;;;;;;;3.25;1.38;;;10.80;99.90;;;;;;4994943;28;20100;-79
2022/10/25 03:11:50;;;;;;;3.28;1.80;;;10.80;99.90;;;;;;5001908;28;20023;-78
2022/10/25 03:14:16;;;;;;;3.28;1.40;;;10.80;99.90;;;;;;4998685;28;20024;-78
2022/10/25 03:16:41;;;;;;;4.72;1.50;;;10.80;99.90;;;;;;5008809;28;20113;-79
2022/10/25 03:19:07;;;;;;;4.70;1.48;;;10.80;99.90;;;;;;4997782;28;20514;-78
2022/10/25 03:21:36;;;;;;;3.42;1.40;;;10.80;99.90;;;;;;5001379;28;20159;-80
2022/10/25 03:24:08;;;;;;;3.03;1.80;;;10.70;99.90;;;;;;4996962;28;20222;-79
2022/10/25 03:26:33;;;;;;;4.50;1.80;;;10.70;99.90;;;;;;5008575;28;20026;-79
2022/10/25 03:29:05;;;;;;;3.50;1.55;;;10.70;99.90;;;;;;5006553;28;20091;-79
2022/10/25 03:31:31;;;;;;;3.30;1.52;;;10.70;99.90;;;;;;5005709;28;20037;-79
2022/10/25 03:33:56;;;;;;;5.35;1.85;;;10.60;99.90;;;;;;5006355;28;20026;-78
2022/10/25 03:36:25;;;;;;;3.88;1.70;;;10.60;99.90;;;;;;5000563;28;20132;-78
2022/10/25 03:38:51;;;;;;;6.03;2.10;;;10.60;99.90;;;;;;4994611;28;20045;-77
2022/10/25 03:41:16;;;;;;;4.18;2.28;;;10.50;99.90;;;;;;4996392;28;20022;-77
2022/10/25 03:43:45;;;;;;;3.80;1.58;;;10.50;99.90;;;;;;4999962;28;20030;-78
2022/10/25 03:46:10;;;;;;;4.75;2.58;;;10.50;99.90;;;;;;4998508;28;20031;-78
2022/10/25 03:48:36;;;;;;;4.57;2.10;;;10.40;99.90;;;;;;5008475;28;20034;-77
2022/10/25 03:51:02;;;;;;;5.65;2.15;;;10.40;99.90;;;;;;5011736;28;20089;-77
2022/10/25 03:53:28;;;;;;;4.40;2.10;;;10.40;99.90;;;;;;5007542;28;20030;-76
2022/10/25 03:55:54;;;;;;;8.38;2.80;;;10.40;99.90;;;;;;5005876;28;20122;-76
2022/10/25 03:58:23;;;;;;;2.58;1.80;;;10.40;99.90;;;;;;5002292;28;20108;-78
2022/10/25 04:00:51;;;;;;;4.22;2.40;;;10.40;99.90;;;;;;5002221;28;20085;-79
2022/10/25 04:03:17;;;;;;;3.28;2.10;;;10.40;99.90;;;;;;4996531;28;20053;-78
2022/10/25 04:05:42;;;;;;;6.13;2.40;;;10.40;99.90;;;;;;4996499;28;20022;-78
2022/10/25 04:08:11;;;;;;;3.85;1.73;;;10.30;99.90;;;;;;4994808;28;20113;-77
2022/10/25 04:10:37;;;;;;;4.00;2.15;;;10.30;99.90;;;;;;4992211;28;20065;-77
2022/10/25 04:13:02;;;;;;;4.82;2.00;;;10.30;99.90;;;;;;4998468;28;20022;-77
2022/10/25 04:15:31;;;;;;;5.15;2.10;;;10.30;99.90;;;;;;4995408;28;20030;-77
2022/10/25 04:17:57;;;;;;;8.85;2.00;;;10.30;99.90;;;;;;5000159;28;20083;-78
2022/10/25 04:20:22;;;;;;;5.82;3.40;;;10.30;99.90;;;;;;4996134;28;20408;-78
2022/10/25 04:22:56;;;;;;;10.05;4.35;;;10.30;99.90;;;;;;4994056;28;20130;-78
2022/10/25 04:25:23;;;;;;;10.60;4.90;;;10.30;99.90;;;;;;4999812;28;20033;-76
2022/10/25 04:27:48;;;;;;;7.18;3.75;;;10.30;99.90;;;;;;4989810;28;20034;-77
2022/10/25 04:30:14;;;;;;;6.18;4.35;;;10.30;99.90;;;;;;4992683;28;20080;-70
2022/10/25 04:32:40;;;;;;;5.70;3.70;;;10.30;99.90;;;;;;4991294;28;20054;-69
2022/10/25 04:35:08;;;;;;;6.43;3.20;;;10.40;99.90;;;;;;4994804;28;20033;-70
2022/10/25 04:37:34;;;;;;;8.93;4.38;;;10.40;99.90;;;;;;4994388;28;20076;-68
2022/10/25 04:40:00;;;;;;;5.97;3.30;;;10.40;99.90;;;;;;4985055;28;20072;-69
2022/10/25 04:42:25;;;;;;;6.68;3.67;;;10.40;99.90;;;;;;4992966;28;20034;-71
2022/10/25 04:44:51;;;;;;;4.18;2.97;;;10.40;99.90;;;;;;4991691;28;20157;-70
2022/10/25 04:47:17;;;;;;;4.43;3.30;;;10.40;99.90;;;;;;4998059;28;20026;-70
2022/10/25 04:49:42;;;;;;;8.32;3.63;;;10.40;99.90;;;;;;4990228;28;20402;-70
2022/10/25 04:52:08;;;;;;;8.52;3.85;;;10.40;99.90;;;;;;4988569;28;20065;-70
2022/10/25 04:54:33;;;;;;;9.02;4.22;;;10.40;99.90;;;;;;4987927;28;20168;-68
2022/10/25 04:56:59;;;;;;;6.80;4.10;;;10.40;99.90;;;;;;4991828;28;20030;-68
2022/10/25 04:59:25;;;;;;;7.30;3.53;;;10.40;99.90;;;;;;4998235;28;20042;-70
2022/10/25 05:01:50;;;;;;;6.22;3.35;;;10.40;99.90;;;;;;4990022;28;20164;-74
2022/10/25 05:04:16;;;;;;;9.65;3.72;;;10.40;99.90;;;;;;5001494;28;20026;-75
2022/10/25 05:06:42;;;;;;;5.97;3.80;;;10.50;99.90;;;;;;4995581;28;20026;-77
2022/10/25 05:09:07;;;;;;;7.00;2.95;;;10.40;99.90;;;;;;5010037;28;20030;-76
2022/10/25 05:11:33;;;;;;;4.70;2.40;;;10.40;99.90;;;;;;4997189;28;20069;-77
2022/10/25 05:13:59;;;;;;;4.55;2.50;;;10.40;99.90;;;;;;4994548;28;20026;-77
2022/10/25 05:16:25;;;;;;;5.35;2.05;;;10.40;99.90;;;;;;4992100;28;20054;-76
2022/10/25 05:18:53;;;;;;;6.10;2.95;;;10.40;99.90;;;;;;4998965;28;20030;-76
2022/10/25 05:21:20;;;;;;;3.33;2.25;;;10.40;99.90;;;;;;4996888;28;20018;-76
2022/10/25 05:23:45;;;;;;;6.82;2.33;;;10.40;99.90;;;;;;4993047;28;20041;-75
2022/10/25 05:26:14;;;;;;;9.48;3.20;;;10.40;99.90;;;;;;4993113;28;20042;-79
2022/10/25 05:28:41;;;;;;;5.00;2.55;;;10.40;99.90;;;;;;5009188;28;20121;-79
2022/10/25 05:31:15;;;;;;;6.22;2.67;;;10.40;99.90;;;;;;4989409;28;20026;-78
2022/10/25 05:33:45;;;;;;;7.43;3.13;;;10.30;99.90;;;;;;4985146;28;20797;-77
2022/10/25 05:36:14;;;;;;;6.35;3.10;;;10.30;99.90;;;;;;4992042;28;20095;-76
2022/10/25 05:38:40;;;;;;;5.20;2.67;;;10.20;99.90;;;;;;5002034;28;20133;-76
2022/10/25 05:41:07;;;;;;;9.90;3.05;;;10.20;99.90;;;;;;4985760;28;20026;-76
2022/10/25 05:43:32;;;;;;;7.75;2.70;;;10.20;99.90;;;;;;4995658;28;20100;-76
2022/10/25 05:46:07;;;;;;;10.82;3.22;;;10.20;99.90;;;;;;4994885;28;20041;-75
2022/10/25 05:48:36;;;;;;;6.88;3.53;;;10.10;99.90;;;;;;4991876;28;20121;-75
2022/10/25 05:51:16;;;;;;;7.35;4.03;;;10.10;99.90;;;;;;5002053;28;20027;-75
2022/10/25 05:53:51;;;;;;;11.13;3.50;;;10.10;99.90;;;;;;4988470;28;20030;-75
2022/10/25 05:56:18;;;;;;;7.85;3.47;;;10.10;99.90;;;;;;4990581;28;20041;-75
2022/10/25 05:58:47;;;;;;;11.95;3.63;;;10.10;99.90;;;;;;4991187;28;20499;-75
2022/10/25 06:01:15;;;;;;;10.88;3.83;;;10.10;99.90;;;;;;4991199;28;20031;-75
2022/10/25 06:03:41;;;;;;;10.70;3.42;;;10.10;99.90;;;;;;4992368;28;20418;-75
2022/10/25 06:06:10;;;;;;;6.88;3.38;;;10.10;99.90;;;;;;4998652;28;20486;-75
2022/10/25 06:08:37;;;;;;;6.22;3.55;;;10.10;99.90;;;;;;4999183;28;20031;-74
2022/10/25 06:11:09;;;;;;;8.02;4.30;;;10.10;99.90;;;;;;4998864;28;20030;-75
2022/10/25 06:13:44;;;;;;;9.88;4.68;;;10.20;99.90;;;;;;4988926;28;20109;-76
2022/10/25 06:16:12;;;;;;;9.65;4.32;;;10.10;99.90;;;;;;4989957;28;20377;-76
2022/10/25 06:18:38;;;;;;;10.48;4.70;;;10.10;99.90;;;;;;4987052;28;20030;-75
2022/10/25 06:21:15;;;;;;;9.30;4.65;;;10.10;99.90;;;;;;4995033;28;20517;-77
2022/10/25 06:23:42;;;;;;;11.38;4.97;;;10.10;99.90;;;;;;5005820;28;20041;-77
2022/10/25 06:26:12;;;;;;;8.07;5.20;;;10.10;99.90;;;;;;5000145;28;20037;-77
2022/10/25 06:28:38;;;;;;;12.32;5.05;;;10.00;99.90;;;;;;4993074;28;20049;-76
2022/10/25 06:31:07;;;;;;;12.50;4.78;;;10.00;99.90;;;;;;4988801;28;21174;-76
2022/10/25 06:33:33;;;;;;;12.82;5.70;;;10.00;99.90;;;;;;4993665;28;20034;-76
2022/10/25 06:36:01;;;;;;;13.55;4.82;;;10.00;99.90;;;;;;4996385;28;20025;-77
2022/10/25 06:38:27;;;;;;;11.68;5.63;;;10.00;99.90;;;;;;4997022;28;20081;-77
2022/10/25 06:41:08;;;;;;;9.05;4.88;;;10.00;99.90;;;;;;4996574;28;20034;-77
2022/10/25 06:43:34;;;;;;;7.50;4.10;;;10.00;99.90;;;;;;4993041;28;20026;-77
2022/10/25 06:46:07;;;;;;;9.90;4.57;;;10.10;99.90;;;;;;4996645;28;20078;-77
2022/10/25 06:48:32;;;;;;;8.35;4.90;;;10.00;99.90;;;;;;5003737;28;20045;-77
2022/10/25 06:51:07;;;;;;;10.30;4.55;;;10.00;99.90;;;;;;4997705;28;20030;-77
2022/10/25 06:53:33;;;;;;;10.48;4.07;;;10.10;99.90;;;;;;4997156;28;20014;-76
2022/10/25 06:56:03;;;;;;;10.00;4.72;;;10.10;99.90;;;;;;4993817;28;20485;-77
2022/10/25 06:58:30;;;;;;;9.95;4.72;;;10.10;99.90;;;;;;4987797;28;20037;-77
2022/10/25 07:01:00;;;;;;;9.38;5.32;;;10.20;99.90;;;;;;4997244;28;20034;-78
2022/10/25 07:03:29;;;;;;;9.18;5.15;;;10.20;99.90;;;;;;4992070;28;20030;-77
2022/10/25 07:05:58;;;;;;;13.00;5.80;;;10.30;99.90;;;;;;5014229;28;20030;-77
2022/10/25 07:08:23;;;;;;;16.20;6.43;;;10.30;99.90;;;;;;4994583;28;20025;-77
2022/10/25 07:10:54;;;;;;;9.60;4.93;;;10.40;99.90;;;;;;4997655;28;20023;-76
2022/10/25 07:13:19;;;;;;;14.50;5.30;;;10.50;99.90;;;;;;4990287;28;20109;-78
2022/10/25 07:15:45;;;;;;;7.78;4.65;;;10.60;99.90;;;;;;4995758;28;20105;-77
2022/10/25 07:18:11;;;;;;;12.30;5.32;;;10.60;99.90;;;;;;4991913;28;20031;-77
2022/10/25 07:20:36;;;;;;;13.10;5.60;;;10.70;99.90;;;;;;5007484;28;20057;-77
2022/10/25 07:23:02;;;;;;;16.35;5.55;;;10.70;99.90;;;;;;4994071;28;20033;-77
2022/10/25 07:25:27;;;;;;;7.97;4.38;;;10.80;99.90;;;;;;4998666;28;20414;-78
2022/10/25 07:27:53;;;;;;;11.32;5.05;;;10.90;99.90;;;;;;4997932;28;20034;-78
2022/10/25 07:30:19;;;;;;;15.40;5.53;;;11.00;99.90;;;;;;4995173;28;20086;-78
2022/10/25 07:32:44;;;;;;;12.93;5.53;;;11.00;99.90;;;;;;4995424;28;20030;-78
2022/10/25 07:35:10;;;;;;;9.63;5.07;;;11.10;99.90;;;;;;5002115;28;20056;-77
2022/10/25 07:37:35;;;;;;;8.30;4.18;;;11.20;99.90;;;;;;4996817;28;20042;-78
2022/10/25 07:40:01;;;;;;;9.77;3.50;;;11.20;99.90;;;;;;4997369;28;20053;-77
2022/10/25 07:42:26;;;;;;;6.97;3.83;;;11.30;99.90;;;;;;4993964;28;20158;-78
2022/10/25 07:44:52;;;;;;;9.73;5.28;;;11.30;99.90;;;;;;4996637;28;20023;-78
2022/10/25 07:47:18;;;;;;;9.98;3.47;;;11.40;99.90;;;;;;4999497;28;20126;-78
2022/10/25 07:49:43;;;;;;;6.63;2.55;;;11.50;99.90;;;;;;5015818;28;20034;-79
2022/10/25 07:52:10;;;;;;;8.43;4.60;;;11.50;99.90;;;;;;5006497;28;20113;-78
2022/10/25 07:54:36;;;;;;;11.82;4.60;;;11.60;99.90;;;;;;5002174;28;20137;-79
2022/10/25 07:57:01;;;;;;;10.93;3.88;;;11.70;99.90;;;;;;5000483;28;20034;-77
2022/10/25 07:59:27;;;;;;;8.70;3.85;;;11.70;99.90;;;;;;4995768;28;20065;-79
2022/10/25 08:01:53;;;;;;;8.93;3.53;;;11.70;99.90;;;;;;4999172;28;20030;-77
2022/10/25 08:04:18;;;;;;;8.90;3.60;;;11.80;99.90;;;;;;4991840;28;20384;-77
2022/10/25 08:06:44;;;;;;;27.70;4.85;;;11.80;99.90;;;;;;5013214;28;20061;-77
2022/10/25 08:09:09;;;;;;;9.55;3.75;;;11.80;99.90;;;;;;4991913;28;20065;-77
2022/10/25 08:11:35;;;;;;;10.00;4.05;;;11.90;99.90;;;;;;5003917;28;20022;-78
2022/10/25 08:14:01;;;;;;;8.50;3.80;;;11.90;99.90;;;;;;4996607;28;20022;-78
2022/10/25 08:16:26;;;;;;;9.27;3.78;;;11.90;99.90;;;;;;4998027;28;20058;-78
2022/10/25 08:18:52;;;;;;;8.05;3.25;;;11.90;99.90;;;;;;4996917;28;20045;-78
2022/10/25 08:21:17;;;;;;;6.18;3.47;;;12.00;99.90;;;;;;5000334;28;20057;-77
2022/10/25 08:23:43;;;;;;;6.53;3.42;;;12.00;99.90;;;;;;4991508;28;20034;-78
2022/10/25 08:26:09;;;;;;;7.93;3.33;;;12.10;99.90;;;;;;4997622;28;20050;-78
2022/10/25 08:28:34;;;;;;;7.30;3.30;;;12.10;99.90;;;;;;5002211;28;20038;-79
2022/10/25 08:31:00;;;;;;;9.15;3.80;;;12.20;99.90;;;;;;4994172;28;20022;-77
2022/10/25 08:33:25;;;;;;;7.13;3.50;;;12.30;99.90;;;;;;4994776;28;20027;-77
2022/10/25 08:35:51;;;;;;;6.13;2.50;;;12.40;99.90;;;;;;4992748;28;20028;-78
2022/10/25 08:38:17;;;;;;;5.47;2.72;;;12.40;99.90;;;;;;4996074;28;20497;-77
2022/10/25 08:40:57;;;;;;;12.00;3.25;;;12.50;99.90;;;;;;4995550;28;20045;-77
2022/10/25 08:43:49;;;;;;;7.38;3.33;;;12.50;99.90;;;;;;4999932;28;20030;-77
2022/10/25 08:46:50;;;;;;;9.05;4.63;;;12.60;99.90;;;;;;4982515;28;20495;-78
2022/10/25 08:49:18;;;;;;;8.63;4.63;;;12.70;99.90;;;;;;4993503;28;20033;-78
2022/10/25 08:51:47;;;;;;;12.82;5.00;;;12.80;99.90;;;;;;5007964;28;20045;-78
2022/10/25 08:54:31;;;;;;;7.10;3.28;;;12.80;99.90;;;;;;4995114;28;20570;-79
2022/10/25 08:57:17;;;;;;;7.95;3.88;;;12.90;99.90;;;;;;5001888;28;20034;-80
2022/10/25 08:59:48;;;;;;;11.55;3.83;;;12.90;99.90;;;;;;4997717;28;20038;-79
2022/10/25 09:02:36;;;;;;;10.40;3.38;;;13.00;99.90;;;;;;4998405;28;20033;-80
2022/10/25 09:05:02;;;;;;;10.80;4.10;;;13.10;99.90;;;;;;5003742;28;20026;-79
2022/10/25 09:07:44;;;;;;;16.15;4.07;;;13.20;99.90;;;;;;5003937;28;20098;-78
2022/10/25 09:10:54;;;;;;;7.60;2.90;;;13.20;99.90;;;;;;4999192;28;20081;-78
2022/10/25 09:13:48;;;;;;;9.65;3.03;;;13.30;99.90;;;;;;4966151;28;20027;-79
2022/10/25 09:16:15;;;;;;;;;;;13.40;99.90;;;;;;4968058;28;20069;-79
2022/10/25 09:18:49;;;;;;;7.75;3.38;;;13.50;99.90;;;;;;4995558;28;19917;-78
2022/10/25 09:21:44;;;;;;;12.73;3.28;;;13.60;99.90;;;;;;5007302;28;20030;-79
2022/10/25 09:24:21;;;;;;;9.32;3.47;;;13.70;99.90;;;;;;4998909;28;20197;-79
2022/10/25 09:26:56;;;;;;;7.15;3.05;;;13.70;99.90;;;;;;5000089;28;20038;-79
2022/10/25 09:29:30;;;;;;;7.75;2.85;;;13.80;99.90;;;;;;4997054;28;20114;-78
2022/10/25 09:31:56;;;;;;;;;;;13.80;99.90;;;;;;4998662;28;20026;-79
2022/10/25 09:34:23;;;;;;;10.85;2.55;;;13.90;99.90;;;;;;5000659;28;19981;-79
2022/10/25 09:37:17;;;;;;;6.03;2.40;;;14.00;99.90;;;;;;4999619;28;20030;-79
2022/10/25 09:39:53;;;;;;;6.57;2.47;;;14.10;99.90;;;;;;5006066;28;20034;-79
2022/10/25 09:42:26;;;;;;;5.55;2.58;;;14.20;99.90;;;;;;4999402;28;20061;-77
2022/10/25 09:45:05;;;;;;;5.97;2.78;;;14.20;99.90;;;;;;5000332;28;20087;-78
2022/10/25 09:47:47;;;;;;;7.13;2.42;;;14.30;99.90;;;;;;5018344;28;20490;-79
2022/10/25 09:50:27;;;;;;;6.97;2.28;;;14.40;99.90;;;;;;5014345;28;20030;-78
2022/10/25 09:53:16;;;;;;;3.85;2.22;;;14.50;99.90;;;;;;5006972;28;20455;-79
2022/10/25 09:55:45;;;;;;;4.25;1.60;;;14.50;99.90;;;;;;5001633;28;20037;-78
2022/10/25 09:58:20;;;;;;;8.05;2.10;;;14.60;99.90;;;;;;5001884;28;20026;-79
2022/10/25 10:00:47;;;;;;;5.00;1.65;;;14.60;99.90;;;;;;5007958;28;20023;-79
2022/10/25 10:03:13;;;;;;;11.13;3.75;;;14.60;99.90;;;;;;4997673;28;20057;-77
2022/10/25 10:05:45;;;;;;;10.02;2.63;;;14.60;99.90;;;;;;4999411;28;20022;-78
2022/10/25 10:08:11;;;;;;;5.30;1.38;;;14.70;99.90;;;;;;5001074;28;20110;-78
2022/10/25 10:10:37;;;;;;;3.42;1.50;;;14.70;99.90;;;;;;4998574;28;20111;-78
2022/10/25 10:13:11;;;;;;;4.53;1.40;;;14.80;99.90;;;;;;4998903;28;20037;-79
2022/10/25 10:15:47;;;;;;;6.95;1.80;;;14.80;99.90;;;;;;5002555;28;20033;-78
2022/10/25 10:18:23;;;;;;;5.35;1.70;;;14.90;99.90;;;;;;4999930;28;20030;-78
2022/10/25 10:21:13;;;;;;;4.00;1.88;;;14.90;99.90;;;;;;5003774;28;20031;-78
2022/10/25 10:23:48;;;;;;;4.72;1.60;;;15.00;99.90;;;;;;5000889;28;20023;-78
2022/10/25 10:26:22;;;;;;;3.88;1.77;;;15.10;99.90;;;;;;5003562;28;20030;-78
2022/10/25 10:29:02;;;;;;;5.40;1.17;;;15.10;99.90;;;;;;4988139;28;20018;-78
2022/10/25 10:31:37;;;;;;;6.45;2.15;;;15.20;99.90;;;;;;5000266;28;20037;-78
2022/10/25 10:34:03;;;;;;;7.78;2.33;;;15.20;99.90;;;;;;4996591;28;20038;-78
2022/10/25 10:36:30;;;;;;;5.50;1.25;;;15.30;99.90;;;;;;4999064;28;20030;-78
2022/10/25 10:39:20;;;;;;;4.80;1.50;;;15.40;99.90;;;;;;4995771;28;20533;-78
2022/10/25 10:42:15;;;;;;;2.90;1.02;;;15.40;99.90;;;;;;4996110;28;20383;-78
2022/10/25 10:45:01;;;;;;;4.00;1.02;;;15.40;99.90;;;;;;5003222;28;20423;-78
2022/10/25 10:47:32;;;;;;;3.42;0.98;;;15.50;99.90;;;;;;4994880;28;20034;-78
2022/10/25 10:49:58;;;;;;;4.90;1.10;;;15.50;99.90;;;;;;4998352;28;20030;-78
2022/10/25 10:52:33;;;;;;;3.03;0.93;;;15.50;99.90;;;;;;5015110;28;20039;-79
2022/10/25 10:54:59;;;;;;;6.45;1.20;;;15.50;99.90;;;;;;5002080;28;20117;-78
2022/10/25 10:57:34;;;;;;;2.88;1.02;;;15.60;99.90;;;;;;5002557;28;20542;-78
2022/10/25 11:00:01;;;;;;;5.47;1.20;;;15.70;99.90;;;;;;4992429;28;20515;-78
2022/10/25 11:02:39;;;;;;;6.18;1.60;;;15.80;99.90;;;;;;5009541;28;20057;-77
2022/10/25 11:05:19;;;;;;;3.60;1.25;;;15.80;99.90;;;;;;5000109;28;20411;-78
2022/10/25 11:07:51;;;;;;;3.03;1.13;;;15.90;99.90;;;;;;5000221;28;20031;-78
2022/10/25 11:10:18;;;;;;;5.88;1.67;;;15.90;99.90;;;;;;4994623;28;20022;-77
2022/10/25 11:12:44;;;;;;;3.45;0.93;;;16.00;99.90;;;;;;4999595;28;20033;-79
2022/10/25 11:15:13;;;;;;;3.90;1.13;;;16.00;99.90;;;;;;4999800;28;20129;-79
2022/10/25 11:17:53;;;;;;;5.68;1.27;;;16.10;99.90;;;;;;5007405;28;20077;-78
2022/10/25 11:20:28;;;;;;;3.22;0.93;;;16.10;99.90;;;;;;4996509;28;20030;-78
2022/10/25 11:23:02;;;;;;;3.55;0.80;;;16.20;99.90;;;;;;4999482;28;20087;-78
2022/10/25 11:25:44;;;;;;;1.73;0.80;;;16.20;99.90;;;;;;5039257;23;20448;-77
2022/10/25 11:28:51;;;;;;;3.83;2.03;;;16.20;99.90;;;;;;5037003;28;20026;-79
2022/10/25 11:31:42;;;;;;;3.55;1.13;;;16.30;99.90;;;;;;5009774;28;20041;-80
2022/10/25 11:34:32;;;;;;;6.97;1.40;;;16.30;99.90;;;;;;5039983;28;20033;-79
2022/10/25 11:37:09;;;;;;;7.10;1.30;;;16.30;99.90;;;;;;5020090;28;20052;-77
2022/10/25 11:39:41;;;;;;;7.07;1.40;;;16.40;99.90;;;;;;5020002;28;20041;-78
2022/10/25 11:42:18;;;;;;;3.67;1.33;;;16.50;99.90;;;;;;5018959;28;20033;-78
2022/10/25 11:44:44;;;;;;;5.85;1.40;;;16.60;99.90;;;;;;5019524;28;20033;-78
2022/10/25 11:47:34;;;;;;;3.85;0.88;;;16.70;99.90;;;;;;5018890;28;20018;-78
2022/10/25 11:50:31;;;;;;;4.63;0.77;;;16.80;99.90;;;;;;5019442;28;20506;-79
2022/10/25 11:53:06;;;;;;;1.80;0.80;;;16.80;99.90;;;;;;5034907;28;20054;-79
2022/10/25 11:55:56;;;;;;;4.88;1.20;;;16.80;99.90;;;;;;5034549;28;20029;-78
2022/10/25 11:58:42;;;;;;;6.38;1.10;;;16.90;99.90;;;;;;5018383;28;20049;-79
2022/10/25 12:01:32;;;;;;;3.83;1.27;;;16.90;99.90;;;;;;5018792;28;20368;-77
2022/10/25 12:04:19;;;;;;;6.85;0.65;;;17.00;99.90;;;;;;5015683;28;20017;-77
2022/10/25 12:07:07;;;;;;;1.95;0.80;;;17.10;99.90;;;;;;5015294;28;20133;-77
2022/10/25 12:09:36;;;;;;;4.63;1.65;;;17.20;99.90;;;;;;5015106;28;20026;-76
2022/10/25 12:12:11;;;;;;;2.58;0.75;;;17.10;99.90;;;;;;5017127;28;20096;-78
2022/10/25 12:14:50;;;;;;;3.28;0.70;;;17.20;99.90;;;;;;5016718;28;20109;-77
2022/10/25 12:17:31;;;;;;;3.13;0.80;;;17.20;99.90;;;;;;5016347;28;20058;-77
2022/10/25 12:20:00;;;;;;;2.17;0.50;;;17.20;99.90;;;;;;5017825;28;20029;-78
2022/10/25 12:22:40;;;;;;;1.30;0.50;;;17.20;99.90;;;;;;5016286;28;20026;-76
2022/10/25 12:25:15;;;;;;;2.38;0.88;;;17.20;99.90;;;;;;5017149;28;20562;-78
2022/10/25 12:27:45;;;;;;;3.13;0.50;;;17.30;99.90;;;;;;5018367;28;20026;-79
2022/10/25 12:30:16;;;;;;;2.95;0.77;;;17.30;99.90;;;;;;4998700;28;20041;-80
2022/10/25 12:32:58;;;;;;;3.20;0.90;;;17.30;99.90;;;;;;5013683;28;20026;-80
2022/10/25 12:35:30;;;;;;;1.45;0.50;;;17.40;99.90;;;;;;4999641;28;20095;-78
2022/10/25 12:38:03;;;;;;;2.15;0.90;;;17.30;99.90;;;;;;4998255;28;20058;-79
2022/10/25 12:40:35;;;;;;;2.45;0.68;;;17.40;99.90;;;;;;5010286;28;20050;-79
2022/10/25 12:43:20;;;;;;;3.30;0.85;;;17.40;99.90;;;;;;5016450;28;20026;-80
2022/10/25 12:46:04;;;;;;;;;;;17.30;99.90;;;;;;5016537;28;20045;-79
2022/10/25 12:48:41;;;;;;;3.83;0.82;;;17.40;99.90;;;;;;5017829;28;19928;-80
2022/10/25 12:51:19;;;;;;;1.52;0.60;;;17.40;99.90;;;;;;5022989;28;20018;-79
2022/10/25 12:53:47;;;;;;;3.10;0.55;;;17.40;99.90;;;;;;5014594;28;20534;-78
2022/10/25 12:56:19;;;;;;;1.95;0.47;;;17.40;99.90;;;;;;5015636;28;20028;-78
2022/10/25 12:58:54;;;;;;;4.22;0.77;;;17.40;99.90;;;;;;5016481;28;20084;-76
2022/10/25 13:01:48;;;;;;;1.63;0.60;;;17.40;99.90;;;;;;5014097;28;20048;-76
2022/10/25 13:04:42;;;;;;;2.80;0.60;;;17.50;99.90;;;;;;5012651;28;20030;-76
2022/10/25 13:07:10;;;;;;;1.25;0.52;;;17.40;99.90;;;;;;5012497;28;20030;-76
2022/10/25 13:09:37;;;;;;;1.83;0.50;;;17.40;99.90;;;;;;5013732;28;20026;-76
2022/10/25 13:12:29;;;;;;;4.43;0.77;;;17.40;99.90;;;;;;5016747;28;20382;-77
2022/10/25 13:14:57;;;;;;;2.40;0.77;;;17.40;99.90;;;;;;5017570;28;20028;-77
2022/10/25 13:17:22;;;;;;;1.77;0.57;;;17.40;99.90;;;;;;5017644;28;20037;-77